sensor_id;sensor_type;location;lat;lon;timestamp;pressure;altitude;pressure_sealevel;temperature;humidity
14393;BME280;7281;42.678;23.372;2023-01-25T00:00:00;96212.69;;;8.33;46.54
14393;BME280;7281;42.678;23.372;2023-01-25T00:02:30;96195.09;;;8.15;46.50
14393;BME280;7281;42.678;23.372;2023-01-25T00:04:57;96215.50;;;8.31;46.19
14393;BME280;7281;42.678;23.372;2023-01-25T00:07:23;96223.06;;;8.46;46.61
14393;BME280;7281;42.678;23.372;2023-01-25T00:09:50;96228.72;;;8.43;46.57
14393;BME280;7281;42.678;23.372;2023-01-25T00:12:17;96222.84;;;8.47;46.52
14393;BME280;7281;42.678;23.372;2023-01-25T00:14:44;96225.09;;;8.44;46.59
14393;BME280;7281;42.678;23.372;2023-01-25T00:17:11;96223.50;;;8.36;46.73
14393;BME280;7281;42.678;23.372;2023-01-25T00:19:38;96224.34;;;8.23;47.30
14393;BME280;7281;42.678;23.372;2023-01-25T00:22:05;96207.31;;;8.21;47.10
14393;BME280;7281;42.678;23.372;2023-01-25T00:24:31;96215.50;;;8.31;46.95
14393;BME280;7281;42.678;23.372;2023-01-25T00:26:58;96211.81;;;8.45;47.12
14393;BME280;7281;42.678;23.372;2023-01-25T00:29:25;96216.09;;;8.33;46.38
14393;BME280;7281;42.678;23.372;2023-01-25T00:32:46;96220.28;;;8.41;47.19
14393;BME280;7281;42.678;23.372;2023-01-25T00:34:47;96214.69;;;8.31;46.93
14393;BME280;7281;42.678;23.372;2023-01-25T00:37:18;96215.06;;;8.41;46.83
14393;BME280;7281;42.678;23.372;2023-01-25T00:39:47;96213.81;;;8.43;47.19
14393;BME280;7281;42.678;23.372;2023-01-25T00:42:16;96217.69;;;8.41;47.38
14393;BME280;7281;42.678;23.372;2023-01-25T00:44:43;96211.13;;;8.25;46.88
14393;BME280;7281;42.678;23.372;2023-01-25T00:47:11;96215.09;;;8.34;46.78
14393;BME280;7281;42.678;23.372;2023-01-25T00:49:40;96223.94;;;8.33;47.17
14393;BME280;7281;42.678;23.372;2023-01-25T00:52:08;96218.88;;;8.38;47.25
14393;BME280;7281;42.678;23.372;2023-01-25T00:54:35;96224.28;;;8.43;47.10
14393;BME280;7281;42.678;23.372;2023-01-25T00:57:02;96223.72;;;8.35;47.38
14393;BME280;7281;42.678;23.372;2023-01-25T00:59:29;96228.00;;;8.16;47.09
14393;BME280;7281;42.678;23.372;2023-01-25T01:01:56;96224.16;;;7.68;47.75
14393;BME280;7281;42.678;23.372;2023-01-25T01:04:23;96218.63;;;8.02;47.81
14393;BME280;7281;42.678;23.372;2023-01-25T01:06:52;96221.97;;;8.22;47.78
14393;BME280;7281;42.678;23.372;2023-01-25T01:09:20;96221.97;;;8.22;47.29
14393;BME280;7281;42.678;23.372;2023-01-25T01:11:50;96224.00;;;8.13;47.39
14393;BME280;7281;42.678;23.372;2023-01-25T01:14:18;96215.25;;;7.88;47.41
14393;BME280;7281;42.678;23.372;2023-01-25T01:16:45;96217.88;;;7.88;46.92
14393;BME280;7281;42.678;23.372;2023-01-25T01:19:12;96214.97;;;7.39;48.58
14393;BME280;7281;42.678;23.372;2023-01-25T01:21:39;96219.19;;;7.47;48.32
14393;BME280;7281;42.678;23.372;2023-01-25T01:24:08;96215.00;;;6.54;50.29
14393;BME280;7281;42.678;23.372;2023-01-25T01:26:35;96220.63;;;6.71;50.39
14393;BME280;7281;42.678;23.372;2023-01-25T01:29:02;96219.41;;;6.60;50.67
14393;BME280;7281;42.678;23.372;2023-01-25T01:31:29;96213.00;;;7.08;49.22
14393;BME280;7281;42.678;23.372;2023-01-25T01:34:05;96207.31;;;7.64;48.69
14393;BME280;7281;42.678;23.372;2023-01-25T01:36:32;96202.47;;;7.74;48.43
14393;BME280;7281;42.678;23.372;2023-01-25T01:39:00;96194.25;;;7.77;48.31
14393;BME280;7281;42.678;23.372;2023-01-25T01:41:27;96194.25;;;7.77;48.62
14393;BME280;7281;42.678;23.372;2023-01-25T01:43:54;96197.97;;;7.94;47.80
14393;BME280;7281;42.678;23.372;2023-01-25T01:46:28;96202.38;;;8.00;47.49
14393;BME280;7281;42.678;23.372;2023-01-25T01:49:05;96196.88;;;8.14;47.74
14393;BME280;7281;42.678;23.372;2023-01-25T01:51:49;96194.59;;;7.87;47.69
14393;BME280;7281;42.678;23.372;2023-01-25T01:54:28;96198.00;;;7.87;47.56
14393;BME280;7281;42.678;23.372;2023-01-25T02:00:07;96188.63;;;7.73;48.28
14393;BME280;7281;42.678;23.372;2023-01-25T02:02:25;96192.53;;;8.02;47.79
14393;BME280;7281;42.678;23.372;2023-01-25T02:04:55;96192.69;;;8.07;47.15
14393;BME280;7281;42.678;23.372;2023-01-25T02:07:34;96199.66;;;7.69;47.90
14393;BME280;7281;42.678;23.372;2023-01-25T02:10:07;96189.31;;;8.00;47.50
14393;BME280;7281;42.678;23.372;2023-01-25T02:12:35;96191.59;;;7.90;47.82
14393;BME280;7281;42.678;23.372;2023-01-25T02:15:05;96195.91;;;8.09;47.60
14393;BME280;7281;42.678;23.372;2023-01-25T02:17:34;96187.53;;;8.00;47.52
14393;BME280;7281;42.678;23.372;2023-01-25T02:20:23;96190.84;;;8.20;47.39
14393;BME280;7281;42.678;23.372;2023-01-25T02:22:58;96185.47;;;8.09;47.67
14393;BME280;7281;42.678;23.372;2023-01-25T02:25:26;96193.47;;;8.14;46.98
14393;BME280;7281;42.678;23.372;2023-01-25T02:27:57;96194.25;;;8.21;47.40
14393;BME280;7281;42.678;23.372;2023-01-25T02:30:26;96185.03;;;7.61;47.71
14393;BME280;7281;42.678;23.372;2023-01-25T02:32:54;96196.88;;;7.57;48.34
14393;BME280;7281;42.678;23.372;2023-01-25T02:35:24;96196.41;;;7.86;47.96
14393;BME280;7281;42.678;23.372;2023-01-25T02:38:01;96178.28;;;8.04;47.11
14393;BME280;7281;42.678;23.372;2023-01-25T02:40:29;96186.41;;;8.21;47.69
14393;BME280;7281;42.678;23.372;2023-01-25T02:42:57;96187.19;;;8.21;47.56
14393;BME280;7281;42.678;23.372;2023-01-25T02:45:27;96174.63;;;8.05;47.39
14393;BME280;7281;42.678;23.372;2023-01-25T02:47:55;96186.47;;;8.08;47.24
14393;BME280;7281;42.678;23.372;2023-01-25T02:50:22;96177.03;;;8.13;47.19
14393;BME280;7281;42.678;23.372;2023-01-25T02:52:48;96166.09;;;8.23;47.03
14393;BME280;7281;42.678;23.372;2023-01-25T02:55:17;96179.28;;;8.41;46.30
14393;BME280;7281;42.678;23.372;2023-01-25T02:57:44;96175.75;;;8.23;46.38
14393;BME280;7281;42.678;23.372;2023-01-25T03:00:13;96191.44;;;8.16;46.90
14393;BME280;7281;42.678;23.372;2023-01-25T03:02:42;96188.38;;;7.88;47.45
14393;BME280;7281;42.678;23.372;2023-01-25T03:05:10;96193.50;;;8.07;47.10
14393;BME280;7281;42.678;23.372;2023-01-25T03:07:37;96184.75;;;7.89;47.74
14393;BME280;7281;42.678;23.372;2023-01-25T03:10:04;96189.03;;;7.77;47.69
14393;BME280;7281;42.678;23.372;2023-01-25T03:12:34;96187.34;;;7.89;46.85
14393;BME280;7281;42.678;23.372;2023-01-25T03:15:01;96195.09;;;8.08;47.08
14393;BME280;7281;42.678;23.372;2023-01-25T03:17:28;96188.22;;;8.27;46.43
14393;BME280;7281;42.678;23.372;2023-01-25T03:19:56;96193.06;;;8.10;47.08
14393;BME280;7281;42.678;23.372;2023-01-25T03:22:24;96183.03;;;8.14;46.31
14393;BME280;7281;42.678;23.372;2023-01-25T03:24:51;96190.56;;;7.91;46.85
14393;BME280;7281;42.678;23.372;2023-01-25T03:27:19;96180.59;;;8.19;47.07
14393;BME280;7281;42.678;23.372;2023-01-25T03:29:50;96186.81;;;8.18;47.44
14393;BME280;7281;42.678;23.372;2023-01-25T03:32:23;96184.41;;;8.16;46.41
14393;BME280;7281;42.678;23.372;2023-01-25T03:34:52;96181.44;;;8.13;46.95
14393;BME280;7281;42.678;23.372;2023-01-25T03:37:19;96187.81;;;8.30;46.35
14393;BME280;7281;42.678;23.372;2023-01-25T03:39:47;96190.16;;;8.38;46.84
14393;BME280;7281;42.678;23.372;2023-01-25T03:42:14;96189.97;;;7.89;47.17
14393;BME280;7281;42.678;23.372;2023-01-25T03:44:42;96181.00;;;8.16;47.00
14393;BME280;7281;42.678;23.372;2023-01-25T03:47:09;96182.00;;;8.28;47.03
14393;BME280;7281;42.678;23.372;2023-01-25T03:49:36;96180.97;;;8.29;47.00
14393;BME280;7281;42.678;23.372;2023-01-25T03:52:05;96173.69;;;8.38;46.59
14393;BME280;7281;42.678;23.372;2023-01-25T03:54:35;96175.28;;;8.39;46.58
14393;BME280;7281;42.678;23.372;2023-01-25T03:57:02;96180.84;;;8.49;46.07
14393;BME280;7281;42.678;23.372;2023-01-25T03:59:34;96178.03;;;8.50;46.38
14393;BME280;7281;42.678;23.372;2023-01-25T04:02:00;96174.25;;;8.46;46.64
14393;BME280;7281;42.678;23.372;2023-01-25T04:04:28;96169.19;;;8.51;46.35
14393;BME280;7281;42.678;23.372;2023-01-25T04:06:55;96161.78;;;8.48;46.80
14393;BME280;7281;42.678;23.372;2023-01-25T04:09:23;96173.75;;;7.80;46.87
14393;BME280;7281;42.678;23.372;2023-01-25T04:11:53;96164.56;;;8.15;46.71
14393;BME280;7281;42.678;23.372;2023-01-25T04:14:20;96168.41;;;8.06;46.64
14393;BME280;7281;42.678;23.372;2023-01-25T04:17:07;96169.38;;;8.12;46.65
14393;BME280;7281;42.678;23.372;2023-01-25T04:20:09;96161.25;;;8.33;46.45
14393;BME280;7281;42.678;23.372;2023-01-25T04:22:39;96171.38;;;8.16;46.67
14393;BME280;7281;42.678;23.372;2023-01-25T04:25:07;96167.25;;;8.40;46.35
14393;BME280;7281;42.678;23.372;2023-01-25T04:27:39;96165.47;;;8.34;46.25
14393;BME280;7281;42.678;23.372;2023-01-25T04:30:11;96163.31;;;8.18;47.04
14393;BME280;7281;42.678;23.372;2023-01-25T04:32:38;96172.97;;;8.24;46.78
14393;BME280;7281;42.678;23.372;2023-01-25T04:35:18;96168.34;;;8.26;46.53
14393;BME280;7281;42.678;23.372;2023-01-25T04:37:54;96172.25;;;7.97;46.25
14393;BME280;7281;42.678;23.372;2023-01-25T04:40:26;96175.13;;;7.83;46.02
14393;BME280;7281;42.678;23.372;2023-01-25T04:42:54;96183.50;;;7.98;46.70
14393;BME280;7281;42.678;23.372;2023-01-25T04:45:22;96181.38;;;7.82;46.92
14393;BME280;7281;42.678;23.372;2023-01-25T04:47:54;96186.66;;;8.13;45.88
14393;BME280;7281;42.678;23.372;2023-01-25T04:50:21;96184.22;;;8.25;46.19
14393;BME280;7281;42.678;23.372;2023-01-25T04:52:48;96167.72;;;8.17;45.44
14393;BME280;7281;42.678;23.372;2023-01-25T04:55:16;96181.44;;;8.13;46.13
14393;BME280;7281;42.678;23.372;2023-01-25T04:57:43;96175.78;;;8.16;46.14
14393;BME280;7281;42.678;23.372;2023-01-25T05:00:10;96179.00;;;8.18;46.29
14393;BME280;7281;42.678;23.372;2023-01-25T05:02:40;96180.91;;;8.42;45.75
14393;BME280;7281;42.678;23.372;2023-01-25T05:05:07;96179.78;;;8.25;45.67
14393;BME280;7281;42.678;23.372;2023-01-25T05:07:34;96172.97;;;8.24;46.04
14393;BME280;7281;42.678;23.372;2023-01-25T05:10:02;96161.38;;;8.07;45.59
14393;BME280;7281;42.678;23.372;2023-01-25T05:12:30;96178.28;;;8.04;46.65
14393;BME280;7281;42.678;23.372;2023-01-25T05:15:01;96177.41;;;8.17;45.64
14393;BME280;7281;42.678;23.372;2023-01-25T05:17:28;96149.34;;;7.99;45.81
14393;BME280;7281;42.678;23.372;2023-01-25T05:19:55;96170.16;;;8.19;45.37
14393;BME280;7281;42.678;23.372;2023-01-25T05:22:23;96170.75;;;8.21;45.32
14393;BME280;7281;42.678;23.372;2023-01-25T05:24:52;96165.31;;;8.29;45.83
14393;BME280;7281;42.678;23.372;2023-01-25T05:27:20;96168.94;;;8.28;45.95
14393;BME280;7281;42.678;23.372;2023-01-25T05:29:54;96160.97;;;8.10;46.27
14393;BME280;7281;42.678;23.372;2023-01-25T05:32:41;96172.56;;;8.14;45.88
14393;BME280;7281;42.678;23.372;2023-01-25T05:35:08;96176.22;;;8.13;45.45
14393;BME280;7281;42.678;23.372;2023-01-25T05:37:37;96170.75;;;8.21;45.78
14393;BME280;7281;42.678;23.372;2023-01-25T05:40:07;96172.56;;;8.14;45.91
14393;BME280;7281;42.678;23.372;2023-01-25T05:42:36;96164.91;;;8.26;45.25
14393;BME280;7281;42.678;23.372;2023-01-25T05:45:08;96173.22;;;8.03;45.40
14393;BME280;7281;42.678;23.372;2023-01-25T05:47:38;96185.03;;;8.18;45.25
14393;BME280;7281;42.678;23.372;2023-01-25T05:50:05;96185.47;;;8.09;45.28
14393;BME280;7281;42.678;23.372;2023-01-25T05:52:54;96178.19;;;8.24;45.18
14393;BME280;7281;42.678;23.372;2023-01-25T05:55:21;96174.56;;;8.25;44.82
14393;BME280;7281;42.678;23.372;2023-01-25T05:57:54;96175.69;;;7.98;45.03
14393;BME280;7281;42.678;23.372;2023-01-25T06:00:21;96185.81;;;8.19;45.55
14393;BME280;7281;42.678;23.372;2023-01-25T06:02:48;96181.00;;;8.16;44.92
14393;BME280;7281;42.678;23.372;2023-01-25T06:05:20;96177.16;;;8.25;44.74
14393;BME280;7281;42.678;23.372;2023-01-25T06:07:47;96181.34;;;8.33;45.10
14393;BME280;7281;42.678;23.372;2023-01-25T06:10:16;96173.34;;;8.28;44.87
14393;BME280;7281;42.678;23.372;2023-01-25T06:12:45;96187.41;;;8.20;44.33
14393;BME280;7281;42.678;23.372;2023-01-25T06:15:12;96183.59;;;8.29;44.28
14393;BME280;7281;42.678;23.372;2023-01-25T06:17:39;96189.22;;;8.26;44.99
14393;BME280;7281;42.678;23.372;2023-01-25T06:20:23;96192.63;;;8.20;45.02
14393;BME280;7281;42.678;23.372;2023-01-25T06:23:03;96179.31;;;7.97;45.25
14393;BME280;7281;42.678;23.372;2023-01-25T06:25:30;96183.44;;;8.11;44.76
14393;BME280;7281;42.678;23.372;2023-01-25T06:27:57;96189.91;;;8.02;44.70
14393;BME280;7281;42.678;23.372;2023-01-25T06:30:24;96191.28;;;8.11;44.63
14393;BME280;7281;42.678;23.372;2023-01-25T06:32:51;96187.13;;;7.97;44.68
14393;BME280;7281;42.678;23.372;2023-01-25T06:35:18;96199.28;;;7.65;45.17
14393;BME280;7281;42.678;23.372;2023-01-25T06:37:45;96189.09;;;8.08;45.25
14393;BME280;7281;42.678;23.372;2023-01-25T06:40:12;96170.50;;;7.85;45.05
14393;BME280;7281;42.678;23.372;2023-01-25T06:42:39;96186.19;;;8.29;44.60
14393;BME280;7281;42.678;23.372;2023-01-25T06:45:06;96185.19;;;8.30;44.91
14393;BME280;7281;42.678;23.372;2023-01-25T06:47:34;96181.75;;;8.23;45.27
14393;BME280;7281;42.678;23.372;2023-01-25T06:50:01;96187.47;;;8.07;44.71
14393;BME280;7281;42.678;23.372;2023-01-25T06:52:28;96186.28;;;8.03;44.87
14393;BME280;7281;42.678;23.372;2023-01-25T06:54:57;96190.50;;;8.04;45.50
14393;BME280;7281;42.678;23.372;2023-01-25T06:57:24;96183.09;;;8.01;45.51
14393;BME280;7281;42.678;23.372;2023-01-25T06:59:51;96193.84;;;8.17;45.41
14393;BME280;7281;42.678;23.372;2023-01-25T07:02:17;96190.84;;;8.14;45.19
14393;BME280;7281;42.678;23.372;2023-01-25T07:04:44;96182.78;;;8.22;44.94
14393;BME280;7281;42.678;23.372;2023-01-25T07:07:11;96186.22;;;8.16;45.45
14393;BME280;7281;42.678;23.372;2023-01-25T07:09:38;96185.81;;;8.19;45.30
14393;BME280;7281;42.678;23.372;2023-01-25T07:12:05;96181.31;;;8.39;44.88
14393;BME280;7281;42.678;23.372;2023-01-25T07:14:32;96186.94;;;8.36;45.53
14393;BME280;7281;42.678;23.372;2023-01-25T07:16:59;96191.44;;;8.23;45.40
14393;BME280;7281;42.678;23.372;2023-01-25T07:19:29;96194.97;;;7.97;45.22
14393;BME280;7281;42.678;23.372;2023-01-25T07:21:56;96183.50;;;7.98;44.73
14393;BME280;7281;42.678;23.372;2023-01-25T07:24:23;96190.41;;;8.23;45.01
14393;BME280;7281;42.678;23.372;2023-01-25T07:26:54;96197.78;;;8.40;44.42
14393;BME280;7281;42.678;23.372;2023-01-25T07:29:21;96185.22;;;8.55;44.53
14393;BME280;7281;42.678;23.372;2023-01-25T07:31:48;96197.31;;;8.49;44.63
14393;BME280;7281;42.678;23.372;2023-01-25T07:34:15;96180.19;;;8.22;44.71
14393;BME280;7281;42.678;23.372;2023-01-25T07:36:42;96198.25;;;8.30;44.66
14393;BME280;7281;42.678;23.372;2023-01-25T07:39:09;96192.94;;;8.43;44.89
14393;BME280;7281;42.678;23.372;2023-01-25T07:41:38;96202.16;;;8.46;44.89
14393;BME280;7281;42.678;23.372;2023-01-25T07:44:10;96198.28;;;8.17;44.71
14393;BME280;7281;42.678;23.372;2023-01-25T07:46:43;96200.97;;;8.04;44.70
14393;BME280;7281;42.678;23.372;2023-01-25T07:49:10;96202.97;;;8.02;45.88
14393;BME280;7281;42.678;23.372;2023-01-25T07:51:36;96213.06;;;8.36;47.84
14393;BME280;7281;42.678;23.372;2023-01-25T07:54:03;96203.38;;;8.43;47.49
14393;BME280;7281;42.678;23.372;2023-01-25T07:56:33;96205.22;;;8.74;47.00
14393;BME280;7281;42.678;23.372;2023-01-25T07:59:02;96206.88;;;8.68;46.63
14393;BME280;7281;42.678;23.372;2023-01-25T08:01:30;96208.69;;;8.30;46.40
14393;BME280;7281;42.678;23.372;2023-01-25T08:04:03;96196.53;;;8.49;46.88
14393;BME280;7281;42.678;23.372;2023-01-25T08:06:32;96202.56;;;8.49;46.38
14393;BME280;7281;42.678;23.372;2023-01-25T08:09:10;96200.44;;;8.64;46.33
14393;BME280;7281;42.678;23.372;2023-01-25T08:11:38;96199.56;;;8.46;45.18
14393;BME280;7281;42.678;23.372;2023-01-25T08:14:05;96195.66;;;8.30;45.75
14393;BME280;7281;42.678;23.372;2023-01-25T08:16:32;96197.56;;;8.41;44.94
14393;BME280;7281;42.678;23.372;2023-01-25T08:19:00;96199.59;;;8.39;45.49
14393;BME280;7281;42.678;23.372;2023-01-25T08:21:30;96195.66;;;8.30;45.27
14393;BME280;7281;42.678;23.372;2023-01-25T08:23:59;96205.09;;;8.18;45.86
14393;BME280;7281;42.678;23.372;2023-01-25T08:26:27;96189.44;;;8.18;46.01
14393;BME280;7281;42.678;23.372;2023-01-25T08:28:55;96191.66;;;8.21;45.91
14393;BME280;7281;42.678;23.372;2023-01-25T08:31:25;96181.13;;;8.34;45.96
14393;BME280;7281;42.678;23.372;2023-01-25T08:33:53;96190.59;;;8.35;46.08
14393;BME280;7281;42.678;23.372;2023-01-25T08:36:20;96198.25;;;8.30;45.82
14393;BME280;7281;42.678;23.372;2023-01-25T08:38:56;96193.81;;;8.31;45.98
14393;BME280;7281;42.678;23.372;2023-01-25T08:41:24;96196.22;;;8.32;46.32
14393;BME280;7281;42.678;23.372;2023-01-25T08:43:53;96186.13;;;8.42;45.89
14393;BME280;7281;42.678;23.372;2023-01-25T08:46:21;96185.81;;;8.26;46.32
14393;BME280;7281;42.678;23.372;2023-01-25T08:48:52;96182.53;;;8.37;45.82
14393;BME280;7281;42.678;23.372;2023-01-25T08:51:20;96184.47;;;8.48;45.50
14393;BME280;7281;42.678;23.372;2023-01-25T08:53:47;96172.34;;;8.22;46.27
14393;BME280;7281;42.678;23.372;2023-01-25T08:56:15;96185.63;;;8.58;45.94
14393;BME280;7281;42.678;23.372;2023-01-25T08:58:44;96187.38;;;8.64;45.87
14393;BME280;7281;42.678;23.372;2023-01-25T09:01:13;96184.84;;;8.51;45.81
14393;BME280;7281;42.678;23.372;2023-01-25T09:03:43;96185.63;;;8.58;45.47
14393;BME280;7281;42.678;23.372;2023-01-25T09:06:11;96185.59;;;8.65;45.97
14393;BME280;7281;42.678;23.372;2023-01-25T09:08:38;96184.69;;;8.77;45.62
14393;BME280;7281;42.678;23.372;2023-01-25T09:11:11;96191.06;;;8.12;46.78
14393;BME280;7281;42.678;23.372;2023-01-25T09:13:39;96176.09;;;8.39;46.22
14393;BME280;7281;42.678;23.372;2023-01-25T09:16:14;96182.69;;;8.73;45.71
14393;BME280;7281;42.678;23.372;2023-01-25T09:18:42;96178.31;;;8.67;45.98
14393;BME280;7281;42.678;23.372;2023-01-25T09:21:15;96177.75;;;8.27;46.31
14393;BME280;7281;42.678;23.372;2023-01-25T09:23:43;96168.66;;;7.92;47.30
14393;BME280;7281;42.678;23.372;2023-01-25T09:26:23;96180.66;;;8.06;47.09
14393;BME280;7281;42.678;23.372;2023-01-25T09:28:52;96168.94;;;8.21;47.03
14393;BME280;7281;42.678;23.372;2023-01-25T09:31:19;96152.75;;;8.44;46.31
14393;BME280;7281;42.678;23.372;2023-01-25T09:34:11;96164.84;;;8.39;48.46
14393;BME280;7281;42.678;23.372;2023-01-25T09:36:38;96153.66;;;8.25;47.05
14393;BME280;7281;42.678;23.372;2023-01-25T09:39:06;96145.16;;;8.36;46.86
14393;BME280;7281;42.678;23.372;2023-01-25T09:41:58;96142.81;;;8.28;46.81
14393;BME280;7281;42.678;23.372;2023-01-25T09:45:07;96141.50;;;8.44;46.82
14393;BME280;7281;42.678;23.372;2023-01-25T09:55:14;96126.28;;;8.34;46.04
14393;BME280;7281;42.678;23.372;2023-01-25T09:57:44;96125.09;;;8.37;46.52
14393;BME280;7281;42.678;23.372;2023-01-25T10:00:21;96111.19;;;8.67;45.97
14393;BME280;7281;42.678;23.372;2023-01-25T10:03:14;96102.63;;;8.78;44.94
14393;BME280;7281;42.678;23.372;2023-01-25T10:05:48;96099.13;;;8.66;45.05
14393;BME280;7281;42.678;23.372;2023-01-25T10:11:01;96096.03;;;8.51;45.65
14393;BME280;7281;42.678;23.372;2023-01-25T10:13:31;96105.09;;;8.24;44.76
14393;BME280;7281;42.678;23.372;2023-01-25T10:16:03;96092.81;;;7.87;45.82
14393;BME280;7281;42.678;23.372;2023-01-25T10:21:29;96080.47;;;9.05;44.18
14393;BME280;7281;42.678;23.372;2023-01-25T10:26:53;96069.06;;;9.18;43.27
14393;BME280;7281;42.678;23.372;2023-01-25T10:29:32;96061.88;;;9.13;43.57
14393;BME280;7281;42.678;23.372;2023-01-25T10:32:24;96065.81;;;9.04;43.81
14393;BME280;7281;42.678;23.372;2023-01-25T10:34:55;96062.16;;;9.42;43.42
14393;BME280;7281;42.678;23.372;2023-01-25T10:37:28;96049.66;;;9.44;43.07
14393;BME280;7281;42.678;23.372;2023-01-25T10:40:14;96054.63;;;9.34;43.03
14393;BME280;7281;42.678;23.372;2023-01-25T10:43:07;96053.31;;;9.06;43.51
14393;BME280;7281;42.678;23.372;2023-01-25T10:45:32;96051.56;;;9.00;43.95
14393;BME280;7281;42.678;23.372;2023-01-25T10:48:05;96044.75;;;9.36;43.08
14393;BME280;7281;42.678;23.372;2023-01-25T10:53:33;96035.00;;;9.25;43.09
14393;BME280;7281;42.678;23.372;2023-01-25T10:58:44;96031.19;;;9.57;42.72
14393;BME280;7281;42.678;23.372;2023-01-25T11:03:51;96027.34;;;8.69;43.32
14393;BME280;7281;42.678;23.372;2023-01-25T11:06:37;96020.47;;;9.29;42.97
14393;BME280;7281;42.678;23.372;2023-01-25T11:09:30;96014.50;;;9.21;42.89
14393;BME280;7281;42.678;23.372;2023-01-25T11:12:18;96015.50;;;9.39;42.74
14393;BME280;7281;42.678;23.372;2023-01-25T11:14:47;96015.53;;;9.02;43.35
14393;BME280;7281;42.678;23.372;2023-01-25T11:17:30;96004.22;;;9.08;42.91
14393;BME280;7281;42.678;23.372;2023-01-25T11:20:15;96011.00;;;9.46;42.59
14393;BME280;7281;42.678;23.372;2023-01-25T11:22:54;95997.44;;;9.67;42.82
14393;BME280;7281;42.678;23.372;2023-01-25T11:25:30;96001.16;;;9.89;41.73
14393;BME280;7281;42.678;23.372;2023-01-25T11:28:20;95996.44;;;9.79;41.93
14393;BME280;7281;42.678;23.372;2023-01-25T11:30:48;95992.44;;;9.47;42.35
14393;BME280;7281;42.678;23.372;2023-01-25T11:33:18;95993.50;;;9.76;41.50
14393;BME280;7281;42.678;23.372;2023-01-25T11:41:30;95984.66;;;9.59;42.25
14393;BME280;7281;42.678;23.372;2023-01-25T11:54:55;95961.41;;;9.51;41.92
14393;BME280;7281;42.678;23.372;2023-01-25T11:58:06;95956.38;;;9.38;42.27
14393;BME280;7281;42.678;23.372;2023-01-25T12:06:56;95949.47;;;9.43;42.85
14393;BME280;7281;42.678;23.372;2023-01-25T12:21:04;95933.13;;;9.30;42.81
14393;BME280;7281;42.678;23.372;2023-01-25T12:29:19;95926.50;;;9.15;42.90
14393;BME280;7281;42.678;23.372;2023-01-25T12:34:42;95928.13;;;8.80;43.58
14393;BME280;7281;42.678;23.372;2023-01-25T12:37:22;95923.56;;;9.23;42.42
14393;BME280;7281;42.678;23.372;2023-01-25T12:39:59;95914.38;;;9.33;42.30
14393;BME280;7281;42.678;23.372;2023-01-25T12:42:43;95919.66;;;9.14;43.08
14393;BME280;7281;42.678;23.372;2023-01-25T12:45:16;95921.44;;;9.02;42.95
14393;BME280;7281;42.678;23.372;2023-01-25T12:47:49;95917.94;;;9.08;43.19
14393;BME280;7281;42.678;23.372;2023-01-25T12:50:24;95915.03;;;8.98;42.92
14393;BME280;7281;42.678;23.372;2023-01-25T12:53:01;95917.00;;;9.33;42.80
14393;BME280;7281;42.678;23.372;2023-01-25T12:55:31;95911.81;;;9.14;43.07
14393;BME280;7281;42.678;23.372;2023-01-25T13:03:34;95900.03;;;9.23;42.28
14393;BME280;7281;42.678;23.372;2023-01-25T13:09:27;95904.06;;;9.38;42.05
14393;BME280;7281;42.678;23.372;2023-01-25T13:11:56;95899.59;;;9.38;42.02
14393;BME280;7281;42.678;23.372;2023-01-25T13:14:27;95898.84;;;9.08;42.63
14393;BME280;7281;42.678;23.372;2023-01-25T13:22:04;95888.44;;;9.01;42.65
14393;BME280;7281;42.678;23.372;2023-01-25T13:24:33;95884.47;;;9.29;42.52
14393;BME280;7281;42.678;23.372;2023-01-25T13:27:09;95884.47;;;9.29;42.60
14393;BME280;7281;42.678;23.372;2023-01-25T13:32:53;95884.47;;;9.29;42.35
14393;BME280;7281;42.678;23.372;2023-01-25T13:35:31;95892.16;;;9.23;42.64
14393;BME280;7281;42.678;23.372;2023-01-25T13:41:01;95887.84;;;9.17;42.37
14393;BME280;7281;42.678;23.372;2023-01-25T13:43:29;95892.56;;;9.09;43.18
14393;BME280;7281;42.678;23.372;2023-01-25T13:45:56;95892.28;;;9.17;42.80
14393;BME280;7281;42.678;23.372;2023-01-25T13:48:24;95897.41;;;8.94;43.41
14393;BME280;7281;42.678;23.372;2023-01-25T13:50:57;95898.03;;;9.07;42.77
14393;BME280;7281;42.678;23.372;2023-01-25T13:53:26;95901.06;;;9.23;42.73
14393;BME280;7281;42.678;23.372;2023-01-25T13:56:01;95903.53;;;9.17;43.15
14393;BME280;7281;42.678;23.372;2023-01-25T13:58:35;95893.25;;;9.04;42.93
14393;BME280;7281;42.678;23.372;2023-01-25T14:01:12;95906.34;;;8.86;43.40
14393;BME280;7281;42.678;23.372;2023-01-25T14:03:51;95905.63;;;8.00;44.05
14393;BME280;7281;42.678;23.372;2023-01-25T14:08:52;95905.34;;;8.69;44.33
14393;BME280;7281;42.678;23.372;2023-01-25T14:11:21;95902.72;;;8.87;43.66
14393;BME280;7281;42.678;23.372;2023-01-25T14:14:02;95896.94;;;8.31;45.17
14393;BME280;7281;42.678;23.372;2023-01-25T14:16:30;95902.28;;;8.54;44.29
14393;BME280;7281;42.678;23.372;2023-01-25T14:19:36;95899.41;;;8.19;44.30
14393;BME280;7281;42.678;23.372;2023-01-25T14:22:25;95900.41;;;8.25;44.99
14393;BME280;7281;42.678;23.372;2023-01-25T14:25:13;95893.00;;;8.58;44.44
14393;BME280;7281;42.678;23.372;2023-01-25T14:27:46;95893.88;;;8.52;44.61
14393;BME280;7281;42.678;23.372;2023-01-25T14:30:29;95895.34;;;8.66;44.02
14393;BME280;7281;42.678;23.372;2023-01-25T14:32:59;95894.41;;;8.18;44.61
14393;BME280;7281;42.678;23.372;2023-01-25T14:35:36;95892.56;;;8.00;45.24
14393;BME280;7281;42.678;23.372;2023-01-25T14:43:40;95873.81;;;8.10;45.38
14393;BME280;7281;42.678;23.372;2023-01-25T14:46:33;95879.78;;;8.17;44.95
14393;BME280;7281;42.678;23.372;2023-01-25T14:54:19;95882.34;;;7.99;45.93
14393;BME280;7281;42.678;23.372;2023-01-25T14:59:31;95889.31;;;8.23;45.56
14393;BME280;7281;42.678;23.372;2023-01-25T15:04:59;95877.75;;;8.19;44.85
14393;BME280;7281;42.678;23.372;2023-01-25T15:07:46;95901.88;;;8.39;44.84
14393;BME280;7281;42.678;23.372;2023-01-25T15:10:30;95901.44;;;8.42;44.42
14393;BME280;7281;42.678;23.372;2023-01-25T15:15:58;95907.09;;;8.39;44.10
14393;BME280;7281;42.678;23.372;2023-01-25T15:18:51;95921.09;;;8.20;44.30
14393;BME280;7281;42.678;23.372;2023-01-25T15:23:47;95922.59;;;7.85;44.63
14393;BME280;7281;42.678;23.372;2023-01-25T15:28:44;95927.47;;;7.81;44.29